sensor_id;sensor_type;location;lat;lon;timestamp;P1;durP1;ratioP1;P2;durP2;ratioP2
42864;SDS011;28511;42.680;23.252;2023-06-04T00:01:32;3.92;;;2.50;;
42864;SDS011;28511;42.680;23.252;2023-06-04T00:03:57;2.80;;;2.10;;
42864;SDS011;28511;42.680;23.252;2023-06-04T00:06:23;2.42;;;2.15;;
42864;SDS011;28511;42.680;23.252;2023-06-04T00:08:48;2.53;;;2.00;;
42864;SDS011;28511;42.680;23.252;2023-06-04T00:11:13;2.63;;;2.42;;
42864;SDS011;28511;42.680;23.252;2023-06-04T00:13:39;2.78;;;1.77;;
42864;SDS011;28511;42.680;23.252;2023-06-04T00:16:04;6.00;;;2.78;;
42864;SDS011;28511;42.680;23.252;2023-06-04T00:18:29;3.50;;;1.92;;
42864;SDS011;28511;42.680;23.252;2023-06-04T00:20:55;5.18;;;3.00;;
42864;SDS011;28511;42.680;23.252;2023-06-04T00:23:20;1.73;;;1.45;;
42864;SDS011;28511;42.680;23.252;2023-06-04T00:25:45;3.45;;;1.65;;
42864;SDS011;28511;42.680;23.252;2023-06-04T00:28:11;3.30;;;2.30;;
42864;SDS011;28511;42.680;23.252;2023-06-04T00:30:36;3.23;;;2.07;;
42864;SDS011;28511;42.680;23.252;2023-06-04T00:33:01;2.60;;;2.13;;
42864;SDS011;28511;42.680;23.252;2023-06-04T00:35:26;1.92;;;1.73;;
42864;SDS011;28511;42.680;23.252;2023-06-04T00:37:52;2.30;;;1.77;;
42864;SDS011;28511;42.680;23.252;2023-06-04T00:40:17;2.30;;;1.42;;
42864;SDS011;28511;42.680;23.252;2023-06-04T00:42:43;3.08;;;2.00;;
42864;SDS011;28511;42.680;23.252;2023-06-04T00:45:10;2.78;;;1.95;;
42864;SDS011;28511;42.680;23.252;2023-06-04T00:47:35;2.00;;;1.15;;
42864;SDS011;28511;42.680;23.252;2023-06-04T00:50:01;2.75;;;1.95;;
42864;SDS011;28511;42.680;23.252;2023-06-04T00:52:26;6.53;;;3.47;;
42864;SDS011;28511;42.680;23.252;2023-06-04T00:54:51;3.78;;;2.28;;
42864;SDS011;28511;42.680;23.252;2023-06-04T00:57:17;4.20;;;1.88;;
42864;SDS011;28511;42.680;23.252;2023-06-04T00:59:42;3.40;;;2.50;;
42864;SDS011;28511;42.680;23.252;2023-06-04T01:02:12;2.03;;;1.35;;
42864;SDS011;28511;42.680;23.252;2023-06-04T01:04:50;1.20;;;0.88;;
42864;SDS011;28511;42.680;23.252;2023-06-04T01:07:17;1.00;;;0.90;;
42864;SDS011;28511;42.680;23.252;2023-06-04T01:09:44;2.17;;;1.00;;
42864;SDS011;28511;42.680;23.252;2023-06-04T01:12:09;2.42;;;1.67;;
42864;SDS011;28511;42.680;23.252;2023-06-04T01:14:35;2.03;;;1.45;;
42864;SDS011;28511;42.680;23.252;2023-06-04T01:22:17;0.70;;;0.70;;
42864;SDS011;28511;42.680;23.252;2023-06-04T01:24:46;1.73;;;1.63;;
42864;SDS011;28511;42.680;23.252;2023-06-04T01:27:16;4.40;;;1.15;;
42864;SDS011;28511;42.680;23.252;2023-06-04T01:29:42;2.97;;;1.77;;
42864;SDS011;28511;42.680;23.252;2023-06-04T01:32:07;1.10;;;1.10;;
42864;SDS011;28511;42.680;23.252;2023-06-04T01:34:42;2.38;;;1.05;;
42864;SDS011;28511;42.680;23.252;2023-06-04T01:37:08;1.70;;;1.25;;
42864;SDS011;28511;42.680;23.252;2023-06-04T01:39:36;2.08;;;1.17;;
42864;SDS011;28511;42.680;23.252;2023-06-04T01:42:01;4.68;;;2.25;;
42864;SDS011;28511;42.680;23.252;2023-06-04T01:44:27;2.80;;;2.55;;
42864;SDS011;28511;42.680;23.252;2023-06-04T01:46:52;1.05;;;1.05;;
42864;SDS011;28511;42.680;23.252;2023-06-04T01:49:18;1.73;;;1.23;;
42864;SDS011;28511;42.680;23.252;2023-06-04T01:51:43;2.03;;;0.80;;
42864;SDS011;28511;42.680;23.252;2023-06-04T01:54:08;1.20;;;0.88;;
42864;SDS011;28511;42.680;23.252;2023-06-04T01:56:33;2.15;;;1.30;;
42864;SDS011;28511;42.680;23.252;2023-06-04T01:58:59;2.67;;;1.15;;
42864;SDS011;28511;42.680;23.252;2023-06-04T02:01:26;0.75;;;0.60;;
42864;SDS011;28511;42.680;23.252;2023-06-04T02:03:54;1.60;;;1.50;;
42864;SDS011;28511;42.680;23.252;2023-06-04T02:06:19;1.65;;;1.23;;
42864;SDS011;28511;42.680;23.252;2023-06-04T02:08:44;2.72;;;1.10;;
42864;SDS011;28511;42.680;23.252;2023-06-04T02:11:10;3.80;;;2.33;;
42864;SDS011;28511;42.680;23.252;2023-06-04T02:13:35;3.40;;;1.77;;
42864;SDS011;28511;42.680;23.252;2023-06-04T02:16:01;2.38;;;1.02;;
42864;SDS011;28511;42.680;23.252;2023-06-04T02:18:26;0.88;;;0.88;;
42864;SDS011;28511;42.680;23.252;2023-06-04T02:20:51;2.15;;;1.52;;
42864;SDS011;28511;42.680;23.252;2023-06-04T02:23:18;2.38;;;1.75;;
42864;SDS011;28511;42.680;23.252;2023-06-04T02:25:43;1.83;;;1.50;;
42864;SDS011;28511;42.680;23.252;2023-06-04T02:28:12;1.97;;;0.87;;
42864;SDS011;28511;42.680;23.252;2023-06-04T02:30:38;1.13;;;1.08;;
42864;SDS011;28511;42.680;23.252;2023-06-04T02:33:03;0.80;;;0.80;;
42864;SDS011;28511;42.680;23.252;2023-06-04T02:35:29;1.30;;;1.05;;
42864;SDS011;28511;42.680;23.252;2023-06-04T02:37:54;2.75;;;1.20;;
42864;SDS011;28511;42.680;23.252;2023-06-04T02:40:22;0.40;;;0.40;;
42864;SDS011;28511;42.680;23.252;2023-06-04T02:42:48;0.77;;;0.73;;
42864;SDS011;28511;42.680;23.252;2023-06-04T02:45:13;1.87;;;1.40;;
42864;SDS011;28511;42.680;23.252;2023-06-04T02:47:38;0.70;;;0.57;;
42864;SDS011;28511;42.680;23.252;2023-06-04T02:50:04;1.30;;;1.20;;
42864;SDS011;28511;42.680;23.252;2023-06-04T02:52:29;3.13;;;1.73;;
42864;SDS011;28511;42.680;23.252;2023-06-04T02:54:55;0.43;;;0.43;;
42864;SDS011;28511;42.680;23.252;2023-06-04T02:57:21;0.73;;;0.73;;
42864;SDS011;28511;42.680;23.252;2023-06-04T02:59:46;2.97;;;1.48;;
42864;SDS011;28511;42.680;23.252;2023-06-04T03:02:11;0.73;;;0.68;;
42864;SDS011;28511;42.680;23.252;2023-06-04T03:04:37;24.05;;;1.90;;
42864;SDS011;28511;42.680;23.252;2023-06-04T03:07:03;1.70;;;0.70;;
42864;SDS011;28511;42.680;23.252;2023-06-04T03:09:32;2.08;;;1.13;;
42864;SDS011;28511;42.680;23.252;2023-06-04T03:11:59;1.80;;;0.82;;
42864;SDS011;28511;42.680;23.252;2023-06-04T03:14:25;0.90;;;0.90;;
42864;SDS011;28511;42.680;23.252;2023-06-04T03:16:57;0.75;;;0.63;;
42864;SDS011;28511;42.680;23.252;2023-06-04T03:19:22;2.83;;;1.52;;
42864;SDS011;28511;42.680;23.252;2023-06-04T03:21:47;1.65;;;1.02;;
42864;SDS011;28511;42.680;23.252;2023-06-04T03:24:17;0.90;;;0.90;;
42864;SDS011;28511;42.680;23.252;2023-06-04T03:26:42;1.43;;;1.33;;
42864;SDS011;28511;42.680;23.252;2023-06-04T03:29:07;1.10;;;0.90;;
42864;SDS011;28511;42.680;23.252;2023-06-04T03:31:32;1.50;;;1.40;;
42864;SDS011;28511;42.680;23.252;2023-06-04T03:33:58;1.42;;;1.08;;
42864;SDS011;28511;42.680;23.252;2023-06-04T03:36:23;1.42;;;1.05;;
42864;SDS011;28511;42.680;23.252;2023-06-04T03:38:56;1.25;;;1.05;;
42864;SDS011;28511;42.680;23.252;2023-06-04T03:41:22;1.98;;;1.23;;
42864;SDS011;28511;42.680;23.252;2023-06-04T03:43:47;1.17;;;0.60;;
42864;SDS011;28511;42.680;23.252;2023-06-04T03:46:12;1.42;;;1.20;;
42864;SDS011;28511;42.680;23.252;2023-06-04T03:48:38;1.20;;;1.02;;
42864;SDS011;28511;42.680;23.252;2023-06-04T03:51:03;3.45;;;1.77;;
42864;SDS011;28511;42.680;23.252;2023-06-04T03:53:28;1.85;;;1.55;;
42864;SDS011;28511;42.680;23.252;2023-06-04T03:55:53;1.90;;;1.37;;
42864;SDS011;28511;42.680;23.252;2023-06-04T03:58:19;1.70;;;1.60;;
42864;SDS011;28511;42.680;23.252;2023-06-04T04:00:46;1.58;;;1.05;;
42864;SDS011;28511;42.680;23.252;2023-06-04T04:03:11;1.75;;;1.48;;
42864;SDS011;28511;42.680;23.252;2023-06-04T04:05:36;1.17;;;0.77;;
42864;SDS011;28511;42.680;23.252;2023-06-04T04:08:02;0.75;;;0.75;;
42864;SDS011;28511;42.680;23.252;2023-06-04T04:10:27;1.65;;;1.08;;
42864;SDS011;28511;42.680;23.252;2023-06-04T04:12:53;1.67;;;1.33;;
42864;SDS011;28511;42.680;23.252;2023-06-04T04:15:19;1.20;;;1.08;;
42864;SDS011;28511;42.680;23.252;2023-06-04T04:17:45;1.50;;;0.73;;
42864;SDS011;28511;42.680;23.252;2023-06-04T04:20:10;1.98;;;1.35;;
42864;SDS011;28511;42.680;23.252;2023-06-04T04:22:39;2.22;;;1.35;;
42864;SDS011;28511;42.680;23.252;2023-06-04T04:25:05;4.32;;;1.63;;
42864;SDS011;28511;42.680;23.252;2023-06-04T04:27:30;0.68;;;0.68;;
42864;SDS011;28511;42.680;23.252;2023-06-04T04:29:56;1.33;;;1.02;;
42864;SDS011;28511;42.680;23.252;2023-06-04T04:32:24;0.85;;;0.85;;
42864;SDS011;28511;42.680;23.252;2023-06-04T04:34:51;1.73;;;1.13;;
42864;SDS011;28511;42.680;23.252;2023-06-04T04:37:17;1.55;;;1.05;;
42864;SDS011;28511;42.680;23.252;2023-06-04T04:39:46;4.65;;;1.48;;
42864;SDS011;28511;42.680;23.252;2023-06-04T04:42:11;2.65;;;1.75;;
42864;SDS011;28511;42.680;23.252;2023-06-04T04:44:36;1.42;;;0.82;;
42864;SDS011;28511;42.680;23.252;2023-06-04T04:47:02;2.23;;;1.90;;
42864;SDS011;28511;42.680;23.252;2023-06-04T04:49:27;2.17;;;1.27;;
42864;SDS011;28511;42.680;23.252;2023-06-04T04:51:52;1.88;;;1.20;;
42864;SDS011;28511;42.680;23.252;2023-06-04T04:54:18;1.20;;;1.10;;
42864;SDS011;28511;42.680;23.252;2023-06-04T04:56:43;1.33;;;1.07;;
42864;SDS011;28511;42.680;23.252;2023-06-04T04:59:08;1.73;;;1.40;;
42864;SDS011;28511;42.680;23.252;2023-06-04T05:01:33;1.83;;;1.17;;
42864;SDS011;28511;42.680;23.252;2023-06-04T05:03:59;3.00;;;2.35;;
42864;SDS011;28511;42.680;23.252;2023-06-04T05:06:24;4.82;;;1.98;;
42864;SDS011;28511;42.680;23.252;2023-06-04T05:08:49;2.78;;;1.63;;
42864;SDS011;28511;42.680;23.252;2023-06-04T05:11:15;3.60;;;1.60;;
42864;SDS011;28511;42.680;23.252;2023-06-04T05:13:40;1.13;;;0.75;;
42864;SDS011;28511;42.680;23.252;2023-06-04T05:16:08;1.60;;;1.50;;
42864;SDS011;28511;42.680;23.252;2023-06-04T05:18:39;6.50;;;1.80;;
42864;SDS011;28511;42.680;23.252;2023-06-04T05:21:09;0.75;;;0.70;;
42864;SDS011;28511;42.680;23.252;2023-06-04T05:23:36;2.22;;;1.38;;
42864;SDS011;28511;42.680;23.252;2023-06-04T05:26:02;3.58;;;2.67;;
42864;SDS011;28511;42.680;23.252;2023-06-04T05:28:28;2.55;;;1.92;;
42864;SDS011;28511;42.680;23.252;2023-06-04T05:30:53;2.00;;;1.50;;
42864;SDS011;28511;42.680;23.252;2023-06-04T05:33:25;2.13;;;1.83;;
42864;SDS011;28511;42.680;23.252;2023-06-04T05:35:50;1.17;;;1.08;;
42864;SDS011;28511;42.680;23.252;2023-06-04T05:38:17;3.50;;;1.30;;
42864;SDS011;28511;42.680;23.252;2023-06-04T05:40:43;4.18;;;1.63;;
42864;SDS011;28511;42.680;23.252;2023-06-04T05:43:09;3.20;;;1.80;;
42864;SDS011;28511;42.680;23.252;2023-06-04T05:45:34;2.03;;;1.63;;
42864;SDS011;28511;42.680;23.252;2023-06-04T05:48:00;1.70;;;1.30;;
42864;SDS011;28511;42.680;23.252;2023-06-04T05:50:26;1.38;;;1.27;;
42864;SDS011;28511;42.680;23.252;2023-06-04T05:52:51;1.70;;;1.40;;
42864;SDS011;28511;42.680;23.252;2023-06-04T05:55:16;1.13;;;1.07;;
42864;SDS011;28511;42.680;23.252;2023-06-04T05:57:41;0.80;;;0.75;;
42864;SDS011;28511;42.680;23.252;2023-06-04T06:00:07;2.83;;;1.85;;
42864;SDS011;28511;42.680;23.252;2023-06-04T06:02:35;1.95;;;1.75;;
42864;SDS011;28511;42.680;23.252;2023-06-04T06:05:02;3.15;;;2.25;;
42864;SDS011;28511;42.680;23.252;2023-06-04T06:07:28;1.65;;;1.40;;
42864;SDS011;28511;42.680;23.252;2023-06-04T06:09:53;1.73;;;1.57;;
42864;SDS011;28511;42.680;23.252;2023-06-04T06:12:18;2.55;;;2.15;;
42864;SDS011;28511;42.680;23.252;2023-06-04T06:14:43;3.70;;;2.35;;
42864;SDS011;28511;42.680;23.252;2023-06-04T06:17:09;2.90;;;1.88;;
42864;SDS011;28511;42.680;23.252;2023-06-04T06:19:35;5.03;;;1.67;;
42864;SDS011;28511;42.680;23.252;2023-06-04T06:22:01;1.88;;;1.42;;
42864;SDS011;28511;42.680;23.252;2023-06-04T06:24:28;2.28;;;2.03;;
42864;SDS011;28511;42.680;23.252;2023-06-04T06:26:53;3.88;;;1.88;;
42864;SDS011;28511;42.680;23.252;2023-06-04T06:29:18;3.10;;;2.20;;
42864;SDS011;28511;42.680;23.252;2023-06-04T06:31:43;2.60;;;1.77;;
42864;SDS011;28511;42.680;23.252;2023-06-04T06:34:09;3.70;;;2.43;;
42864;SDS011;28511;42.680;23.252;2023-06-04T06:36:34;1.67;;;1.40;;
42864;SDS011;28511;42.680;23.252;2023-06-04T06:39:00;3.13;;;2.70;;
42864;SDS011;28511;42.680;23.252;2023-06-04T06:41:25;2.70;;;1.90;;
42864;SDS011;28511;42.680;23.252;2023-06-04T06:43:51;3.22;;;2.00;;
42864;SDS011;28511;42.680;23.252;2023-06-04T06:46:16;11.87;;;3.13;;
42864;SDS011;28511;42.680;23.252;2023-06-04T06:48:41;3.23;;;1.37;;
42864;SDS011;28511;42.680;23.252;2023-06-04T06:51:10;3.50;;;2.35;;
42864;SDS011;28511;42.680;23.252;2023-06-04T06:53:35;7.45;;;2.88;;
42864;SDS011;28511;42.680;23.252;2023-06-04T06:56:00;2.72;;;2.20;;
42864;SDS011;28511;42.680;23.252;2023-06-04T06:58:25;2.13;;;1.92;;
42864;SDS011;28511;42.680;23.252;2023-06-04T07:00:51;1.63;;;1.52;;
42864;SDS011;28511;42.680;23.252;2023-06-04T07:03:16;1.50;;;1.40;;
42864;SDS011;28511;42.680;23.252;2023-06-04T07:05:41;3.38;;;2.40;;
42864;SDS011;28511;42.680;23.252;2023-06-04T07:08:07;4.80;;;2.37;;
42864;SDS011;28511;42.680;23.252;2023-06-04T07:10:32;3.27;;;2.03;;
42864;SDS011;28511;42.680;23.252;2023-06-04T07:12:57;3.27;;;2.10;;
42864;SDS011;28511;42.680;23.252;2023-06-04T07:15:22;2.85;;;2.30;;
42864;SDS011;28511;42.680;23.252;2023-06-04T07:17:48;1.75;;;1.65;;
42864;SDS011;28511;42.680;23.252;2023-06-04T07:20:13;3.65;;;1.88;;
42864;SDS011;28511;42.680;23.252;2023-06-04T07:22:38;2.40;;;1.88;;
42864;SDS011;28511;42.680;23.252;2023-06-04T07:25:04;2.83;;;2.10;;
42864;SDS011;28511;42.680;23.252;2023-06-04T07:27:30;1.95;;;1.65;;
42864;SDS011;28511;42.680;23.252;2023-06-04T07:29:56;2.65;;;1.90;;
42864;SDS011;28511;42.680;23.252;2023-06-04T07:32:21;3.88;;;1.95;;
42864;SDS011;28511;42.680;23.252;2023-06-04T07:34:46;3.35;;;2.92;;
42864;SDS011;28511;42.680;23.252;2023-06-04T07:37:11;2.17;;;1.80;;
42864;SDS011;28511;42.680;23.252;2023-06-04T07:39:38;1.85;;;1.70;;
42864;SDS011;28511;42.680;23.252;2023-06-04T07:42:04;2.22;;;1.60;;
42864;SDS011;28511;42.680;23.252;2023-06-04T07:44:29;4.10;;;2.80;;
42864;SDS011;28511;42.680;23.252;2023-06-04T07:46:54;3.97;;;2.03;;
42864;SDS011;28511;42.680;23.252;2023-06-04T07:49:20;2.47;;;2.27;;
42864;SDS011;28511;42.680;23.252;2023-06-04T07:51:45;3.83;;;2.58;;
42864;SDS011;28511;42.680;23.252;2023-06-04T07:54:11;2.17;;;1.88;;
42864;SDS011;28511;42.680;23.252;2023-06-04T07:56:37;2.27;;;2.10;;
42864;SDS011;28511;42.680;23.252;2023-06-04T07:59:02;3.13;;;2.10;;
42864;SDS011;28511;42.680;23.252;2023-06-04T08:01:27;2.40;;;1.53;;
42864;SDS011;28511;42.680;23.252;2023-06-04T08:03:53;4.82;;;2.85;;
42864;SDS011;28511;42.680;23.252;2023-06-04T08:06:18;3.00;;;2.20;;
42864;SDS011;28511;42.680;23.252;2023-06-04T08:08:44;4.97;;;2.50;;
42864;SDS011;28511;42.680;23.252;2023-06-04T08:11:11;3.13;;;2.15;;
42864;SDS011;28511;42.680;23.252;2023-06-04T08:13:36;4.03;;;2.40;;
42864;SDS011;28511;42.680;23.252;2023-06-04T08:16:01;5.30;;;3.00;;
42864;SDS011;28511;42.680;23.252;2023-06-04T08:18:26;4.53;;;2.20;;
42864;SDS011;28511;42.680;23.252;2023-06-04T08:20:52;8.80;;;3.23;;
42864;SDS011;28511;42.680;23.252;2023-06-04T08:23:17;3.40;;;2.85;;
42864;SDS011;28511;42.680;23.252;2023-06-04T08:25:42;3.33;;;2.38;;
42864;SDS011;28511;42.680;23.252;2023-06-04T08:28:08;4.55;;;2.65;;
42864;SDS011;28511;42.680;23.252;2023-06-04T08:30:34;6.85;;;2.80;;
42864;SDS011;28511;42.680;23.252;2023-06-04T08:33:01;3.33;;;2.60;;
42864;SDS011;28511;42.680;23.252;2023-06-04T08:35:26;7.18;;;2.78;;
42864;SDS011;28511;42.680;23.252;2023-06-04T08:37:51;3.87;;;2.63;;
42864;SDS011;28511;42.680;23.252;2023-06-04T08:40:17;3.33;;;2.60;;
42864;SDS011;28511;42.680;23.252;2023-06-04T08:42:43;6.78;;;3.20;;
42864;SDS011;28511;42.680;23.252;2023-06-04T08:45:10;5.13;;;3.05;;
42864;SDS011;28511;42.680;23.252;2023-06-04T08:47:36;6.15;;;3.92;;
42864;SDS011;28511;42.680;23.252;2023-06-04T08:50:02;4.95;;;3.58;;
42864;SDS011;28511;42.680;23.252;2023-06-04T08:52:30;4.95;;;3.03;;
42864;SDS011;28511;42.680;23.252;2023-06-04T08:54:55;4.47;;;3.05;;
42864;SDS011;28511;42.680;23.252;2023-06-04T08:57:21;4.43;;;3.35;;
42864;SDS011;28511;42.680;23.252;2023-06-04T08:59:47;5.05;;;3.28;;
42864;SDS011;28511;42.680;23.252;2023-06-04T09:02:13;3.58;;;2.78;;
42864;SDS011;28511;42.680;23.252;2023-06-04T09:04:39;4.88;;;3.30;;
42864;SDS011;28511;42.680;23.252;2023-06-04T09:07:05;6.82;;;3.38;;
42864;SDS011;28511;42.680;23.252;2023-06-04T09:09:31;2.80;;;2.17;;
42864;SDS011;28511;42.680;23.252;2023-06-04T09:11:59;5.85;;;2.70;;
42864;SDS011;28511;42.680;23.252;2023-06-04T09:14:26;7.32;;;3.45;;
42864;SDS011;28511;42.680;23.252;2023-06-04T09:16:52;5.55;;;3.45;;
42864;SDS011;28511;42.680;23.252;2023-06-04T09:19:19;3.10;;;2.13;;
42864;SDS011;28511;42.680;23.252;2023-06-04T09:21:47;3.78;;;2.25;;
42864;SDS011;28511;42.680;23.252;2023-06-04T09:24:12;4.05;;;2.80;;
42864;SDS011;28511;42.680;23.252;2023-06-04T09:26:38;4.80;;;2.85;;
42864;SDS011;28511;42.680;23.252;2023-06-04T09:29:03;5.93;;;2.42;;
42864;SDS011;28511;42.680;23.252;2023-06-04T09:31:31;3.65;;;2.90;;
42864;SDS011;28511;42.680;23.252;2023-06-04T09:34:02;8.07;;;3.95;;
42864;SDS011;28511;42.680;23.252;2023-06-04T09:36:30;3.00;;;2.35;;
42864;SDS011;28511;42.680;23.252;2023-06-04T09:38:56;7.35;;;3.28;;
42864;SDS011;28511;42.680;23.252;2023-06-04T09:41:21;5.40;;;2.77;;
42864;SDS011;28511;42.680;23.252;2023-06-04T09:43:46;7.00;;;3.40;;
42864;SDS011;28511;42.680;23.252;2023-06-04T09:46:12;5.30;;;2.47;;
42864;SDS011;28511;42.680;23.252;2023-06-04T09:48:38;7.30;;;3.83;;
42864;SDS011;28511;42.680;23.252;2023-06-04T09:51:07;4.68;;;2.75;;
42864;SDS011;28511;42.680;23.252;2023-06-04T09:53:33;4.82;;;2.90;;
42864;SDS011;28511;42.680;23.252;2023-06-04T09:55:58;4.17;;;3.03;;
42864;SDS011;28511;42.680;23.252;2023-06-04T09:58:25;3.90;;;3.35;;
42864;SDS011;28511;42.680;23.252;2023-06-04T10:00:50;5.07;;;2.97;;
42864;SDS011;28511;42.680;23.252;2023-06-04T10:03:17;4.25;;;2.95;;
42864;SDS011;28511;42.680;23.252;2023-06-04T10:05:48;5.60;;;3.50;;
42864;SDS011;28511;42.680;23.252;2023-06-04T10:08:14;4.40;;;3.28;;
42864;SDS011;28511;42.680;23.252;2023-06-04T10:10:41;6.40;;;3.22;;
42864;SDS011;28511;42.680;23.252;2023-06-04T10:13:18;5.60;;;3.80;;
42864;SDS011;28511;42.680;23.252;2023-06-04T10:15:44;6.35;;;3.30;;
42864;SDS011;28511;42.680;23.252;2023-06-04T10:18:10;6.55;;;3.42;;
42864;SDS011;28511;42.680;23.252;2023-06-04T10:20:36;5.47;;;2.72;;
42864;SDS011;28511;42.680;23.252;2023-06-04T10:23:01;7.03;;;4.70;;
42864;SDS011;28511;42.680;23.252;2023-06-04T10:25:27;7.80;;;3.58;;
42864;SDS011;28511;42.680;23.252;2023-06-04T10:27:52;4.47;;;2.65;;
42864;SDS011;28511;42.680;23.252;2023-06-04T10:30:18;5.70;;;2.27;;
42864;SDS011;28511;42.680;23.252;2023-06-04T10:32:43;5.28;;;3.03;;
42864;SDS011;28511;42.680;23.252;2023-06-04T10:35:08;3.57;;;2.30;;
42864;SDS011;28511;42.680;23.252;2023-06-04T10:37:34;4.65;;;2.28;;
42864;SDS011;28511;42.680;23.252;2023-06-04T10:39:59;4.00;;;2.53;;
42864;SDS011;28511;42.680;23.252;2023-06-04T10:42:25;4.68;;;3.17;;
42864;SDS011;28511;42.680;23.252;2023-06-04T10:44:52;4.22;;;2.75;;
42864;SDS011;28511;42.680;23.252;2023-06-04T10:49:46;7.67;;;3.40;;
42864;SDS011;28511;42.680;23.252;2023-06-04T10:52:11;4.78;;;3.03;;
42864;SDS011;28511;42.680;23.252;2023-06-04T10:54:36;8.73;;;3.45;;
42864;SDS011;28511;42.680;23.252;2023-06-04T10:57:15;3.97;;;2.87;;
42864;SDS011;28511;42.680;23.252;2023-06-04T10:59:41;4.03;;;2.70;;
42864;SDS011;28511;42.680;23.252;2023-06-04T11:02:07;4.18;;;2.15;;
42864;SDS011;28511;42.680;23.252;2023-06-04T11:04:33;2.92;;;2.03;;
42864;SDS011;28511;42.680;23.252;2023-06-04T11:07:02;3.72;;;2.58;;
42864;SDS011;28511;42.680;23.252;2023-06-04T11:09:28;2.67;;;1.98;;
42864;SDS011;28511;42.680;23.252;2023-06-04T11:11:57;4.88;;;3.08;;
42864;SDS011;28511;42.680;23.252;2023-06-04T11:14:23;4.22;;;2.47;;
42864;SDS011;28511;42.680;23.252;2023-06-04T11:16:49;2.80;;;2.22;;
42864;SDS011;28511;42.680;23.252;2023-06-04T11:19:14;7.15;;;3.30;;
42864;SDS011;28511;42.680;23.252;2023-06-04T11:21:39;3.72;;;2.55;;
42864;SDS011;28511;42.680;23.252;2023-06-04T11:24:05;4.60;;;2.70;;
42864;SDS011;28511;42.680;23.252;2023-06-04T11:28:55;8.93;;;3.40;;
42864;SDS011;28511;42.680;23.252;2023-06-04T11:31:21;6.35;;;3.17;;
42864;SDS011;28511;42.680;23.252;2023-06-04T11:33:46;4.80;;;2.80;;
42864;SDS011;28511;42.680;23.252;2023-06-04T11:36:30;4.22;;;2.50;;
42864;SDS011;28511;42.680;23.252;2023-06-04T11:39:03;3.92;;;2.72;;
42864;SDS011;28511;42.680;23.252;2023-06-04T11:41:31;4.78;;;2.42;;
42864;SDS011;28511;42.680;23.252;2023-06-04T11:43:57;3.53;;;2.35;;
42864;SDS011;28511;42.680;23.252;2023-06-04T11:46:22;3.00;;;2.33;;
42864;SDS011;28511;42.680;23.252;2023-06-04T11:48:48;3.95;;;2.63;;
42864;SDS011;28511;42.680;23.252;2023-06-04T11:51:15;3.65;;;2.58;;
42864;SDS011;28511;42.680;23.252;2023-06-04T11:53:40;5.32;;;2.88;;
42864;SDS011;28511;42.680;23.252;2023-06-04T11:56:06;4.65;;;2.30;;
42864;SDS011;28511;42.680;23.252;2023-06-04T11:58:31;4.75;;;2.53;;
42864;SDS011;28511;42.680;23.252;2023-06-04T12:00:57;9.75;;;3.40;;
42864;SDS011;28511;42.680;23.252;2023-06-04T12:03:36;4.75;;;2.80;;
42864;SDS011;28511;42.680;23.252;2023-06-04T12:06:35;4.43;;;2.35;;
42864;SDS011;28511;42.680;23.252;2023-06-04T12:08:54;7.50;;;3.50;;
42864;SDS011;28511;42.680;23.252;2023-06-04T12:13:52;3.50;;;2.40;;
42864;SDS011;28511;42.680;23.252;2023-06-04T12:16:18;3.97;;;2.78;;
42864;SDS011;28511;42.680;23.252;2023-06-04T12:18:43;3.72;;;2.55;;
42864;SDS011;28511;42.680;23.252;2023-06-04T12:21:20;5.03;;;2.75;;
42864;SDS011;28511;42.680;23.252;2023-06-04T12:23:47;3.40;;;2.25;;
42864;SDS011;28511;42.680;23.252;2023-06-04T12:26:24;4.47;;;3.33;;
42864;SDS011;28511;42.680;23.252;2023-06-04T12:29:26;4.28;;;2.75;;
42864;SDS011;28511;42.680;23.252;2023-06-04T12:31:45;4.35;;;2.75;;
42864;SDS011;28511;42.680;23.252;2023-06-04T12:34:12;5.72;;;3.15;;
42864;SDS011;28511;42.680;23.252;2023-06-04T12:36:37;6.13;;;3.47;;
42864;SDS011;28511;42.680;23.252;2023-06-04T12:39:03;6.93;;;2.90;;
42864;SDS011;28511;42.680;23.252;2023-06-04T12:41:29;3.30;;;2.78;;
42864;SDS011;28511;42.680;23.252;2023-06-04T12:43:54;6.63;;;2.50;;
42864;SDS011;28511;42.680;23.252;2023-06-04T12:46:20;5.10;;;2.63;;
42864;SDS011;28511;42.680;23.252;2023-06-04T12:48:45;6.07;;;3.58;;
42864;SDS011;28511;42.680;23.252;2023-06-04T12:51:11;5.75;;;2.72;;
42864;SDS011;28511;42.680;23.252;2023-06-04T12:53:39;4.85;;;3.33;;
42864;SDS011;28511;42.680;23.252;2023-06-04T12:56:05;3.55;;;2.80;;
42864;SDS011;28511;42.680;23.252;2023-06-04T12:58:31;4.47;;;2.25;;
42864;SDS011;28511;42.680;23.252;2023-06-04T13:00:56;5.45;;;3.20;;
42864;SDS011;28511;42.680;23.252;2023-06-04T13:03:21;3.85;;;2.55;;
42864;SDS011;28511;42.680;23.252;2023-06-04T13:05:47;5.47;;;2.90;;
42864;SDS011;28511;42.680;23.252;2023-06-04T13:08:12;5.13;;;3.60;;
42864;SDS011;28511;42.680;23.252;2023-06-04T13:10:37;5.23;;;2.90;;
42864;SDS011;28511;42.680;23.252;2023-06-04T13:13:02;5.57;;;2.93;;
42864;SDS011;28511;42.680;23.252;2023-06-04T13:15:27;5.20;;;2.60;;
42864;SDS011;28511;42.680;23.252;2023-06-04T13:17:54;3.53;;;2.42;;
42864;SDS011;28511;42.680;23.252;2023-06-04T13:20:19;6.22;;;3.90;;
42864;SDS011;28511;42.680;23.252;2023-06-04T13:22:46;2.80;;;2.45;;
42864;SDS011;28511;42.680;23.252;2023-06-04T13:25:12;5.93;;;2.95;;
42864;SDS011;28511;42.680;23.252;2023-06-04T13:27:37;4.55;;;2.85;;
42864;SDS011;28511;42.680;23.252;2023-06-04T13:30:02;6.10;;;2.93;;
42864;SDS011;28511;42.680;23.252;2023-06-04T13:32:28;3.97;;;3.25;;
42864;SDS011;28511;42.680;23.252;2023-06-04T13:34:53;2.93;;;2.53;;
42864;SDS011;28511;42.680;23.252;2023-06-04T13:37:18;5.30;;;3.53;;
42864;SDS011;28511;42.680;23.252;2023-06-04T13:39:43;4.43;;;3.13;;
42864;SDS011;28511;42.680;23.252;2023-06-04T13:42:09;5.35;;;3.17;;
42864;SDS011;28511;42.680;23.252;2023-06-04T13:44:34;4.43;;;2.90;;
42864;SDS011;28511;42.680;23.252;2023-06-04T13:47:00;4.72;;;2.92;;
42864;SDS011;28511;42.680;23.252;2023-06-04T13:49:26;2.70;;;2.47;;
42864;SDS011;28511;42.680;23.252;2023-06-04T13:51:51;3.22;;;2.38;;
42864;SDS011;28511;42.680;23.252;2023-06-04T13:54:17;4.50;;;2.60;;
42864;SDS011;28511;42.680;23.252;2023-06-04T13:56:43;2.95;;;2.33;;
42864;SDS011;28511;42.680;23.252;2023-06-04T13:59:08;1.92;;;1.73;;
42864;SDS011;28511;42.680;23.252;2023-06-04T14:01:34;2.78;;;2.42;;
42864;SDS011;28511;42.680;23.252;2023-06-04T14:03:59;5.80;;;2.90;;
42864;SDS011;28511;42.680;23.252;2023-06-04T14:06:24;3.83;;;2.20;;
42864;SDS011;28511;42.680;23.252;2023-06-04T14:08:50;2.70;;;2.08;;
42864;SDS011;28511;42.680;23.252;2023-06-04T14:11:15;3.43;;;2.23;;
42864;SDS011;28511;42.680;23.252;2023-06-04T14:13:40;3.33;;;2.73;;
42864;SDS011;28511;42.680;23.252;2023-06-04T14:16:09;3.60;;;1.77;;
42864;SDS011;28511;42.680;23.252;2023-06-04T14:18:35;4.72;;;2.60;;
42864;SDS011;28511;42.680;23.252;2023-06-04T14:21:00;3.60;;;2.20;;
42864;SDS011;28511;42.680;23.252;2023-06-04T14:23:25;5.10;;;3.05;;
42864;SDS011;28511;42.680;23.252;2023-06-04T14:25:51;5.30;;;3.20;;
42864;SDS011;28511;42.680;23.252;2023-06-04T14:28:16;2.97;;;2.33;;
42864;SDS011;28511;42.680;23.252;2023-06-04T14:30:43;4.65;;;2.88;;
42864;SDS011;28511;42.680;23.252;2023-06-04T14:33:08;4.15;;;2.75;;
42864;SDS011;28511;42.680;23.252;2023-06-04T14:35:33;6.27;;;3.30;;
42864;SDS011;28511;42.680;23.252;2023-06-04T14:37:58;2.67;;;2.20;;
42864;SDS011;28511;42.680;23.252;2023-06-04T14:40:24;3.73;;;2.00;;